KFOE

Topeka Regional Airport

Topeka, Kansas, USA
KFOE 182337Z 1900/1924 17006KT P6SM SCT030 BKN150 FM191600 23012KT P6SM BKN180 FM192300 30011KT P6SM OVC060
Issued Valid From Valid To
Dec-18 @ 23:37 UTC
(19 minutes ago)
Dec-19 @ 00:00 UTC
(in 4 minutes)
Dec-20 @ 00:00 UTC
(in 24 hours)
Dec-19 @ 00:00 to Dec-19 @ 16:00
KFOE 182337Z 1900/1924 17006KT P6SM SCT030 BKN150
Wind Visibility Clouds
170° at 6 knots Greater than 6 miles
  • Scattered at 3,000' AGL
  • Broken at 15,000' AGL
From Dec-19 @ 16:00 to Dec-19 @ 23:00
FM191600 23012KT P6SM BKN180
Wind Visibility Clouds
230° at 12 knots Greater than 6 miles
  • Broken at 18,000' AGL
From Dec-19 @ 23:00 to Dec-20 @ 00:00
FM192300 30011KT P6SM OVC060
Wind Visibility Clouds
300° at 11 knots Greater than 6 miles
  • Overcast at 6,000' AGL
KFOE 182337Z 1900/1924 17006KT P6SM SCT030 BKN150 FM191600 23012KT P6SM BKN180 FM192300 30011KT P6SM OVC060
Issued Dec-18 @ 23:37 UTC
(19 minutes ago)
Valid From Dec-19 @ 00:00 UTC
(in 4 minutes)
Valid To Dec-20 @ 00:00 UTC
(in 24 hours)
Dec-19 @ 00:00 - Dec-19 @ 16:00
Wind Visibility
170° at 6 knots Greater than 6 miles
Clouds
  • Scattered at 3,000' AGL
  • Broken at 15,000' AGL
From Dec-19 @ 16:00 - Dec-19 @ 23:00
Wind Visibility
230° at 12 knots Greater than 6 miles
Clouds
  • Broken at 18,000' AGL
From Dec-19 @ 23:00 - Dec-20 @ 00:00
Wind Visibility
300° at 11 knots Greater than 6 miles
Clouds
  • Overcast at 6,000' AGL